Buoy 51523

sailwx.info

Track history (hours):
 
Tides and Currents Weather Stations Pressure Air Temp Water Temp Dewpoint Dewpoint Depression Visibility Wind Speed Wind Dir Waves Ship Positions

Drifting buoy 51523

Last reported at 2015-Mar-28 11:30 UTC. Time now 2015-Mar-28 14:27 UTC.
Position N 11°13' W 155°45'.

Water temperature 27.1 ° C

Date/timePositionNaut miles runAvg speedWind from/ knotsBaromVisibWave heightAir tempDewpointWater temp
2015-Mar-28 11:30N 11°13' W 155°45'0 0.0 27.1
2015-Mar-28 08:30N 11°13' W 155°45'2 9.7 27.1
2015-Mar-28 08:15N 11°13' W 155°43'0 0.0 27.1
2015-Mar-28 07:45N 11°13' W 155°43'0 0.0 27.1
2015-Mar-28 07:30N 11°13' W 155°43'0 0.0 27.1
2015-Mar-28 06:45N 11°13' W 155°43'2 0.6 27.1
2015-Mar-28 04:00N 11°13' W 155°41'310.3 27.1
2015-Mar-28 03:45N 11°14' W 155°38'0 0.0 27.1
2015-Mar-28 03:30N 11°14' W 155°38'0 0.0 27.1
2015-Mar-28 02:00N 11°14' W 155°38'0 0.0 27.1
2015-Mar-28 01:45N 11°14' W 155°38'0 0.0 27.1
2015-Mar-28 00:45N 11°14' W 155°38'1 5.9 27.1
2015-Mar-28 00:30N 11°14' W 155°37'2 1.0 27.1
2015-Mar-27 22:45N 11°14' W 155°35'1 0.3 27.1
2015-Mar-27 20:30N 11°14' W 155°35'1 1.6 27.0
2015-Mar-27 19:45N 11°15' W 155°34'1 4.7 27.0
2015-Mar-27 19:30N 11°14' W 155°35'1 1.6 27.0
2015-Mar-27 18:45N 11°15' W 155°34'0 0.1 27.0
2015-Mar-27 17:00N 11°15' W 155°34'1 3.1 27.0
2015-Mar-27 16:45N 11°15' W 155°33'0 0.0 27.0
2015-Mar-27 16:30N 11°15' W 155°33'0 0.0 27.0
2015-Mar-27 16:15N 11°15' W 155°33'1 0.6 27.0
2015-Mar-27 15:00N 11°16' W 155°33'0 1.2 27.0
2015-Mar-27 14:45N 11°15' W 155°32'0 0.0 27.0
2015-Mar-27 14:30N 11°15' W 155°32'1 1.0 27.0
2015-Mar-27 13:30N 11°15' W 155°32'0 0.0 27.0
2015-Mar-27 13:15N 11°15' W 155°32'3 1.9 27.0
2015-Mar-27 11:45N 11°15' W 155°29'0 0.0 27.0
2015-Mar-27 08:45N 11°15' W 155°29'1 1.2 27.0
2015-Mar-27 08:00N 11°15' W 155°28'0 0.0 27.0
2015-Mar-27 07:45N 11°15' W 155°28'0 0.0 27.1
2015-Mar-27 07:15N 11°15' W 155°28'1 5.8 27.1
2015-Mar-27 07:00N 11°16' W 155°27'1 0.3 27.1
2015-Mar-27 04:15N 11°16' W 155°26'0 0.0 27.1
2015-Mar-27 04:00N 11°16' W 155°26'0 0.0 27.1
2015-Mar-27 02:30N 11°16' W 155°26'1 2.7 27.1
2015-Mar-27 02:00N 11°16' W 155°25'1 0.8 27.1
2015-Mar-27 00:45N 11°16' W 155°24'0 0.0 27.1
2015-Mar-27 00:30N 11°16' W 155°24'1 1.0 27.1
2015-Mar-26 23:00N 11°15' W 155°23'0 0.0 27.1
2015-Mar-26 21:00N 11°15' W 155°23'0 0.0 27.0
2015-Mar-26 20:45N 11°15' W 155°23'1 1.1 27.0
2015-Mar-26 20:00N 11°15' W 155°22'3 0.7 27.0
2015-Mar-26 15:00N 11°15' W 155°19'0 0.0 27.0
2015-Mar-26 14:45N 11°15' W 155°19'2 0.6 27.0
2015-Mar-26 12:00N 11°15' W 155°17'414.8 27.0
2015-Mar-26 11:45N 11°15' W 155°13'2 0.4 27.0
2015-Mar-26 06:45N 11°17' W 155°12'0 0.0 27.0
2015-Mar-26 04:30N 11°17' W 155°12'1 1.5 27.1
2015-Mar-26 04:00N 11°16' W 155°12'0 0.0 27.1
2015-Mar-26 03:45N 11°16' W 155°12'1 1.7 27.1
2015-Mar-26 03:00N 11°18' W 155°11'0 0.0 27.1
2015-Mar-26 02:45N 11°18' W 155°11'1 2.0 27.1
2015-Mar-26 02:15N 11°18' W 155°10'0 0.0 27.1
2015-Mar-26 02:00N 11°18' W 155°10'1 0.2 27.1
2015-Mar-25 23:15N 11°18' W 155°10'2 0.7 27.1
2015-Mar-25 20:30N 11°18' W 155°08'0 0.0 27.0
2015-Mar-25 20:15N 11°18' W 155°08'1 0.6 27.0
2015-Mar-25 18:45N 11°19' W 155°08'0 0.1 27.0
2015-Mar-25 16:15N 11°19' W 155°08'0 0.0 26.9
2015-Mar-25 16:00N 11°19' W 155°08'0 0.0 26.9
2015-Mar-25 15:45N 11°19' W 155°08'1 1.8 26.9
2015-Mar-25 15:15N 11°20' W 155°07'0 0.0 26.9
2015-Mar-25 15:00N 11°20' W 155°07'0 0.0 26.9
2015-Mar-25 13:45N 11°20' W 155°07'0 0.0 26.9
2015-Mar-25 12:15N 11°20' W 155°07'0 0.0 27.0
2015-Mar-25 12:00N 11°20' W 155°07'1 0.4 27.0
2015-Mar-25 08:45N 11°19' W 155°06'1 1.4 27.0
2015-Mar-25 07:45N 11°19' W 155°05'0 0.3 27.0
2015-Mar-25 07:00N 11°19' W 155°05'0 0.0 27.0
2015-Mar-25 06:45N 11°19' W 155°05'1 0.5 27.0
2015-Mar-25 04:00N 11°19' W 155°03'0 0.0 27.0
2015-Mar-25 03:45N 11°19' W 155°03'0 0.7 27.0
2015-Mar-25 03:30N 11°19' W 155°03'0 0.3 27.0
2015-Mar-25 03:15N 11°19' W 155°03'1 0.7 27.0
2015-Mar-25 02:30N 11°19' W 155°03'0 0.0 27.0
2015-Mar-25 02:15N 11°19' W 155°03'0 0.0 27.1
2015-Mar-25 01:15N 11°19' W 155°03'1 4.4 27.0
2015-Mar-25 01:00N 11°18' W 155°03'1 0.2 27.0
2015-Mar-24 20:45N 11°17' W 155°02'2 2.7 26.9
2015-Mar-24 20:00N 11°16' W 155°00'0 0.0 26.9
2015-Mar-24 19:45N 11°16' W 155°00'2 0.5 26.9
2015-Mar-24 15:00N 11°16' W 154°58'3 0.5 26.9
2015-Mar-24 08:00N 11°15' W 154°55'1 0.3 26.9
2015-Mar-24 04:00N 11°15' W 154°53'5 0.5 26.9
2015-Mar-23 18:30N 11°15' W 154°48'1 0.7 27.0
2015-Mar-23 17:15N 11°15' W 154°48'0 0.1 27.0
2015-Mar-23 15:00N 11°16' W 154°48'1 1.1 27.0
2015-Mar-23 13:45N 11°14' W 154°47'1 0.4 27.0
2015-Mar-23 10:45N 11°13' W 154°46'2 0.5 27.1
2015-Mar-23 06:45N 11°15' W 154°44'0 0.0 27.1
2015-Mar-23 04:45N 11°15' W 154°44'1 2.9 27.2
2015-Mar-23 04:30N 11°14' W 154°44'1 3.9 27.2
2015-Mar-23 04:15N 11°13' W 154°43'1 0.7 27.2
2015-Mar-23 03:00N 11°14' W 154°44'1 0.4 27.3
2015-Mar-23 00:00N 11°13' W 154°43'2 0.5 27.2
2015-Mar-22 19:45N 11°12' W 154°41'0 0.0 27.0
2015-Mar-22 19:00N 11°12' W 154°41'2 6.9 27.0
2015-Mar-22 18:45N 11°12' W 154°39'0 0.1 27.0
2015-Mar-22 16:15N 11°12' W 154°39'0 0.0 27.0
2015-Mar-22 16:00N 11°12' W 154°39'1 0.6 27.0
2015-Mar-22 14:00N 11°12' W 154°38'1 0.5 27.0
2015-Mar-22 11:00N 11°11' W 154°37'0 0.1 27.0
2015-Mar-22 08:45N 11°10' W 154°37'2 1.1 27.0
2015-Mar-22 07:00N 11°11' W 154°35'2 1.0 27.0
2015-Mar-22 04:45N 11°10' W 154°33'0 0.0 27.1
2015-Mar-22 04:30N 11°10' W 154°33'2 1.6 27.1
2015-Mar-22 03:00N 11°09' W 154°31'0 0.0 27.1
2015-Mar-22 02:45N 11°09' W 154°31'2 0.7 27.1
2015-Mar-22 00:00N 11°08' W 154°29'0 0.0 27.1
2015-Mar-21 23:45N 11°08' W 154°29'3 0.4 27.1
2015-Mar-21 16:00N 11°08' W 154°26'0 0.0 27.0
2015-Mar-21 15:45N 11°08' W 154°26'1 0.6 27.0
2015-Mar-21 14:15N 11°08' W 154°25'0 0.0 27.0
2015-Mar-21 14:00N 11°08' W 154°25'1 0.7 27.0
2015-Mar-21 13:00N 11°08' W 154°25'0 0.0 27.0
2015-Mar-21 12:45N 11°08' W 154°25'5 0.6 27.0
2015-Mar-21 04:00N 11°08' W 154°19'0 0.7 27.1
2015-Mar-21 03:30N 11°08' W 154°19'1 3.9 27.1
2015-Mar-21 03:15N 11°08' W 154°18'0 0.0 27.1
2015-Mar-21 03:00N 11°08' W 154°18'0 0.0 27.1
2015-Mar-21 00:15N 11°08' W 154°18'0 0.0 27.1
2015-Mar-21 00:00N 11°08' W 154°18'3 0.6 27.1
2015-Mar-20 19:45N 11°08' W 154°15'2 6.7 27.0
2015-Mar-20 19:30N 11°08' W 154°17'2 2.4 27.0
2015-Mar-20 18:45N 11°08' W 154°15'2 0.9 27.0
2015-Mar-20 17:00N 11°08' W 154°14'0 0.4 27.0
2015-Mar-20 16:00N 11°09' W 154°14'0 0.0 27.0
2015-Mar-20 14:45N 11°09' W 154°14'1 0.2 27.0
2015-Mar-20 08:45N 11°09' W 154°12'1 1.4 27.0
2015-Mar-20 08:00N 11°08' W 154°12'3 2.6 27.0
2015-Mar-20 07:00N 11°08' W 154°09'2 0.5 26.9
2015-Mar-20 03:00N 11°09' W 154°07'0 0.0 27.0
2015-Mar-20 02:45N 11°09' W 154°07'0 0.0 27.0
2015-Mar-20 01:45N 11°09' W 154°07'1 0.3 27.0
2015-Mar-19 20:45N 11°09' W 154°06'1 0.9 26.9
2015-Mar-19 20:00N 11°09' W 154°05'3 0.7 26.9
2015-Mar-19 16:00N 11°08' W 154°03'0 0.0 26.8
2015-Mar-19 15:15N 11°08' W 154°03'2 0.3 26.8
2015-Mar-19 08:00N 11°09' W 154°01'0 0.0 26.9
2015-Mar-19 07:30N 11°09' W 154°01'1 4.0 26.9
2015-Mar-19 07:15N 11°09' W 153°60'0 0.0 26.9
2015-Mar-19 06:30N 11°09' W 153°60'2 0.8 26.9
2015-Mar-19 04:15N 11°08' W 153°58'0 0.0 26.9
2015-Mar-19 04:00N 11°08' W 153°58'1 2.3 26.9
2015-Mar-19 03:30N 11°09' W 153°57'0 0.0 27.0
2015-Mar-19 03:15N 11°09' W 153°57'0 0.0 27.0
2015-Mar-19 02:30N 11°09' W 153°57'0 0.0 27.0
2015-Mar-19 01:45N 11°09' W 153°57'1 0.9 27.0
2015-Mar-19 00:30N 11°08' W 153°57'0 0.0 27.0
2015-Mar-18 22:45N 11°08' W 153°57'2 1.2 26.9
2015-Mar-18 21:00N 11°08' W 153°55'0 0.9 26.9
2015-Mar-18 20:30N 11°08' W 153°55'0 0.0 26.9
2015-Mar-18 20:15N 11°08' W 153°55'0 0.2 26.9
2015-Mar-18 19:30N 11°08' W 153°54'0 0.5 26.9
2015-Mar-18 19:15N 11°08' W 153°55'2 3.3 26.9
2015-Mar-18 18:45N 11°08' W 153°53'0 0.0 26.9
2015-Mar-18 16:45N 11°08' W 153°53'1 2.0 26.8
2015-Mar-18 16:30N 11°08' W 153°52'0 0.0 26.8
2015-Mar-18 16:15N 11°08' W 153°52'0 0.4 26.8
2015-Mar-18 15:30N 11°09' W 153°52'0 0.0 26.9
2015-Mar-18 15:00N 11°09' W 153°52'0 0.0 26.9
2015-Mar-18 14:45N 11°09' W 153°52'1 0.6 26.9
2015-Mar-18 13:30N 11°09' W 153°52'0 0.0 26.9
2015-Mar-18 13:15N 11°09' W 153°52'2 1.3 26.8
2015-Mar-18 11:45N 11°09' W 153°50'   26.9
Track history (hours):
 
Tides and Currents Weather Stations Pressure Air Temp Water Temp Dewpoint Dewpoint Depression Visibility Wind Speed Wind Dir Waves Ship Positions

Drifting buoy 51523

Last reported at 2015-Mar-28 11:30 UTC. Time now 2015-Mar-28 14:27 UTC.
Position N 11°13' W 155°45'.

Water temperature 27.1 ° C

Date/timePositionNaut miles runAvg speedWind from/ knotsBaromVisibWave heightAir tempDewpointWater temp
2015-Mar-28 11:30N 11°13' W 155°45'0 0.0 27.1
2015-Mar-28 08:30N 11°13' W 155°45'2 9.7 27.1
2015-Mar-28 08:15N 11°13' W 155°43'0 0.0 27.1
2015-Mar-28 07:45N 11°13' W 155°43'0 0.0 27.1
2015-Mar-28 07:30N 11°13' W 155°43'0 0.0 27.1
2015-Mar-28 06:45N 11°13' W 155°43'2 0.6 27.1
2015-Mar-28 04:00N 11°13' W 155°41'310.3 27.1
2015-Mar-28 03:45N 11°14' W 155°38'0 0.0 27.1
2015-Mar-28 03:30N 11°14' W 155°38'0 0.0 27.1
2015-Mar-28 02:00N 11°14' W 155°38'0 0.0 27.1
2015-Mar-28 01:45N 11°14' W 155°38'0 0.0 27.1
2015-Mar-28 00:45N 11°14' W 155°38'1 5.9 27.1
2015-Mar-28 00:30N 11°14' W 155°37'2 1.0 27.1
2015-Mar-27 22:45N 11°14' W 155°35'1 0.3 27.1
2015-Mar-27 20:30N 11°14' W 155°35'1 1.6 27.0
2015-Mar-27 19:45N 11°15' W 155°34'1 4.7 27.0
2015-Mar-27 19:30N 11°14' W 155°35'1 1.6 27.0
2015-Mar-27 18:45N 11°15' W 155°34'0 0.1 27.0
2015-Mar-27 17:00N 11°15' W 155°34'1 3.1 27.0
2015-Mar-27 16:45N 11°15' W 155°33'0 0.0 27.0
2015-Mar-27 16:30N 11°15' W 155°33'0 0.0 27.0
2015-Mar-27 16:15N 11°15' W 155°33'1 0.6 27.0
2015-Mar-27 15:00N 11°16' W 155°33'0 1.2 27.0
2015-Mar-27 14:45N 11°15' W 155°32'0 0.0 27.0
2015-Mar-27 14:30N 11°15' W 155°32'1 1.0 27.0
2015-Mar-27 13:30N 11°15' W 155°32'0 0.0 27.0
2015-Mar-27 13:15N 11°15' W 155°32'3 1.9 27.0
2015-Mar-27 11:45N 11°15' W 155°29'0 0.0 27.0
2015-Mar-27 08:45N 11°15' W 155°29'1 1.2 27.0
2015-Mar-27 08:00N 11°15' W 155°28'0 0.0 27.0
2015-Mar-27 07:45N 11°15' W 155°28'0 0.0 27.1
2015-Mar-27 07:15N 11°15' W 155°28'1 5.8 27.1
2015-Mar-27 07:00N 11°16' W 155°27'1 0.3 27.1
2015-Mar-27 04:15N 11°16' W 155°26'0 0.0 27.1
2015-Mar-27 04:00N 11°16' W 155°26'0 0.0 27.1
2015-Mar-27 02:30N 11°16' W 155°26'1 2.7 27.1
2015-Mar-27 02:00N 11°16' W 155°25'1 0.8 27.1
2015-Mar-27 00:45N 11°16' W 155°24'0 0.0 27.1
2015-Mar-27 00:30N 11°16' W 155°24'1 1.0 27.1
2015-Mar-26 23:00N 11°15' W 155°23'0 0.0 27.1
2015-Mar-26 21:00N 11°15' W 155°23'0 0.0 27.0
2015-Mar-26 20:45N 11°15' W 155°23'1 1.1 27.0
2015-Mar-26 20:00N 11°15' W 155°22'3 0.7 27.0
2015-Mar-26 15:00N 11°15' W 155°19'0 0.0 27.0
2015-Mar-26 14:45N 11°15' W 155°19'2 0.6 27.0
2015-Mar-26 12:00N 11°15' W 155°17'414.8 27.0
2015-Mar-26 11:45N 11°15' W 155°13'2 0.4 27.0
2015-Mar-26 06:45N 11°17' W 155°12'0 0.0 27.0
2015-Mar-26 04:30N 11°17' W 155°12'1 1.5 27.1
2015-Mar-26 04:00N 11°16' W 155°12'0 0.0 27.1
2015-Mar-26 03:45N 11°16' W 155°12'1 1.7 27.1
2015-Mar-26 03:00N 11°18' W 155°11'0 0.0 27.1
2015-Mar-26 02:45N 11°18' W 155°11'1 2.0 27.1
2015-Mar-26 02:15N 11°18' W 155°10'0 0.0 27.1
2015-Mar-26 02:00N 11°18' W 155°10'1 0.2 27.1
2015-Mar-25 23:15N 11°18' W 155°10'2 0.7 27.1
2015-Mar-25 20:30N 11°18' W 155°08'0 0.0 27.0
2015-Mar-25 20:15N 11°18' W 155°08'1 0.6 27.0
2015-Mar-25 18:45N 11°19' W 155°08'0 0.1 27.0
2015-Mar-25 16:15N 11°19' W 155°08'0 0.0 26.9
2015-Mar-25 16:00N 11°19' W 155°08'0 0.0 26.9
2015-Mar-25 15:45N 11°19' W 155°08'1 1.8 26.9
2015-Mar-25 15:15N 11°20' W 155°07'0 0.0 26.9
2015-Mar-25 15:00N 11°20' W 155°07'0 0.0 26.9
2015-Mar-25 13:45N 11°20' W 155°07'0 0.0 26.9
2015-Mar-25 12:15N 11°20' W 155°07'0 0.0 27.0
2015-Mar-25 12:00N 11°20' W 155°07'1 0.4 27.0
2015-Mar-25 08:45N 11°19' W 155°06'1 1.4 27.0
2015-Mar-25 07:45N 11°19' W 155°05'0 0.3 27.0
2015-Mar-25 07:00N 11°19' W 155°05'0 0.0 27.0
2015-Mar-25 06:45N 11°19' W 155°05'1 0.5 27.0
2015-Mar-25 04:00N 11°19' W 155°03'0 0.0 27.0
2015-Mar-25 03:45N 11°19' W 155°03'0 0.7 27.0
2015-Mar-25 03:30N 11°19' W 155°03'0 0.3 27.0
2015-Mar-25 03:15N 11°19' W 155°03'1 0.7 27.0
2015-Mar-25 02:30N 11°19' W 155°03'0 0.0 27.0
2015-Mar-25 02:15N 11°19' W 155°03'0 0.0 27.1
2015-Mar-25 01:15N 11°19' W 155°03'1 4.4 27.0
2015-Mar-25 01:00N 11°18' W 155°03'1 0.2 27.0
2015-Mar-24 20:45N 11°17' W 155°02'2 2.7 26.9
2015-Mar-24 20:00N 11°16' W 155°00'0 0.0 26.9
2015-Mar-24 19:45N 11°16' W 155°00'2 0.5 26.9
2015-Mar-24 15:00N 11°16' W 154°58'3 0.5 26.9
2015-Mar-24 08:00N 11°15' W 154°55'1 0.3 26.9
2015-Mar-24 04:00N 11°15' W 154°53'5 0.5 26.9
2015-Mar-23 18:30N 11°15' W 154°48'1 0.7 27.0
2015-Mar-23 17:15N 11°15' W 154°48'0 0.1 27.0
2015-Mar-23 15:00N 11°16' W 154°48'1 1.1 27.0
2015-Mar-23 13:45N 11°14' W 154°47'1 0.4 27.0
2015-Mar-23 10:45N 11°13' W 154°46'2 0.5 27.1
2015-Mar-23 06:45N 11°15' W 154°44'0 0.0 27.1
2015-Mar-23 04:45N 11°15' W 154°44'1 2.9 27.2
2015-Mar-23 04:30N 11°14' W 154°44'1 3.9 27.2
2015-Mar-23 04:15N 11°13' W 154°43'1 0.7 27.2
2015-Mar-23 03:00N 11°14' W 154°44'1 0.4 27.3
2015-Mar-23 00:00N 11°13' W 154°43'2 0.5 27.2
2015-Mar-22 19:45N 11°12' W 154°41'0 0.0 27.0
2015-Mar-22 19:00N 11°12' W 154°41'2 6.9 27.0
2015-Mar-22 18:45N 11°12' W 154°39'0 0.1 27.0
2015-Mar-22 16:15N 11°12' W 154°39'0 0.0 27.0
2015-Mar-22 16:00N 11°12' W 154°39'1 0.6 27.0
2015-Mar-22 14:00N 11°12' W 154°38'1 0.5 27.0
2015-Mar-22 11:00N 11°11' W 154°37'0 0.1 27.0
2015-Mar-22 08:45N 11°10' W 154°37'2 1.1 27.0
2015-Mar-22 07:00N 11°11' W 154°35'2 1.0 27.0
2015-Mar-22 04:45N 11°10' W 154°33'0 0.0 27.1
2015-Mar-22 04:30N 11°10' W 154°33'2 1.6 27.1
2015-Mar-22 03:00N 11°09' W 154°31'0 0.0 27.1
2015-Mar-22 02:45N 11°09' W 154°31'2 0.7 27.1
2015-Mar-22 00:00N 11°08' W 154°29'0 0.0 27.1
2015-Mar-21 23:45N 11°08' W 154°29'3 0.4 27.1
2015-Mar-21 16:00N 11°08' W 154°26'0 0.0 27.0
2015-Mar-21 15:45N 11°08' W 154°26'1 0.6 27.0
2015-Mar-21 14:15N 11°08' W 154°25'0 0.0 27.0
2015-Mar-21 14:00N 11°08' W 154°25'1 0.7 27.0
2015-Mar-21 13:00N 11°08' W 154°25'0 0.0 27.0
2015-Mar-21 12:45N 11°08' W 154°25'5 0.6 27.0
2015-Mar-21 04:00N 11°08' W 154°19'0 0.7 27.1
2015-Mar-21 03:30N 11°08' W 154°19'1 3.9 27.1
2015-Mar-21 03:15N 11°08' W 154°18'0 0.0 27.1
2015-Mar-21 03:00N 11°08' W 154°18'0 0.0 27.1
2015-Mar-21 00:15N 11°08' W 154°18'0 0.0 27.1
2015-Mar-21 00:00N 11°08' W 154°18'3 0.6 27.1
2015-Mar-20 19:45N 11°08' W 154°15'2 6.7 27.0
2015-Mar-20 19:30N 11°08' W 154°17'2 2.4 27.0
2015-Mar-20 18:45N 11°08' W 154°15'2 0.9 27.0
2015-Mar-20 17:00N 11°08' W 154°14'0 0.4 27.0
2015-Mar-20 16:00N 11°09' W 154°14'0 0.0 27.0
2015-Mar-20 14:45N 11°09' W 154°14'1 0.2 27.0
2015-Mar-20 08:45N 11°09' W 154°12'1 1.4 27.0
2015-Mar-20 08:00N 11°08' W 154°12'3 2.6 27.0
2015-Mar-20 07:00N 11°08' W 154°09'2 0.5 26.9
2015-Mar-20 03:00N 11°09' W 154°07'0 0.0 27.0
2015-Mar-20 02:45N 11°09' W 154°07'0 0.0 27.0
2015-Mar-20 01:45N 11°09' W 154°07'1 0.3 27.0
2015-Mar-19 20:45N 11°09' W 154°06'1 0.9 26.9
2015-Mar-19 20:00N 11°09' W 154°05'3 0.7 26.9
2015-Mar-19 16:00N 11°08' W 154°03'0 0.0 26.8
2015-Mar-19 15:15N 11°08' W 154°03'2 0.3 26.8
2015-Mar-19 08:00N 11°09' W 154°01'0 0.0 26.9
2015-Mar-19 07:30N 11°09' W 154°01'1 4.0 26.9
2015-Mar-19 07:15N 11°09' W 153°60'0 0.0 26.9
2015-Mar-19 06:30N 11°09' W 153°60'2 0.8 26.9
2015-Mar-19 04:15N 11°08' W 153°58'0 0.0 26.9
2015-Mar-19 04:00N 11°08' W 153°58'1 2.3 26.9
2015-Mar-19 03:30N 11°09' W 153°57'0 0.0 27.0
2015-Mar-19 03:15N 11°09' W 153°57'0 0.0 27.0
2015-Mar-19 02:30N 11°09' W 153°57'0 0.0 27.0
2015-Mar-19 01:45N 11°09' W 153°57'1 0.9 27.0
2015-Mar-19 00:30N 11°08' W 153°57'0 0.0 27.0
2015-Mar-18 22:45N 11°08' W 153°57'2 1.2 26.9
2015-Mar-18 21:00N 11°08' W 153°55'0 0.9 26.9
2015-Mar-18 20:30N 11°08' W 153°55'0 0.0 26.9
2015-Mar-18 20:15N 11°08' W 153°55'0 0.2 26.9
2015-Mar-18 19:30N 11°08' W 153°54'0 0.5 26.9
2015-Mar-18 19:15N 11°08' W 153°55'2 3.3 26.9
2015-Mar-18 18:45N 11°08' W 153°53'0 0.0 26.9
2015-Mar-18 16:45N 11°08' W 153°53'1 2.0 26.8
2015-Mar-18 16:30N 11°08' W 153°52'0 0.0 26.8
2015-Mar-18 16:15N 11°08' W 153°52'0 0.4 26.8
2015-Mar-18 15:30N 11°09' W 153°52'0 0.0 26.9
2015-Mar-18 15:00N 11°09' W 153°52'0 0.0 26.9
2015-Mar-18 14:45N 11°09' W 153°52'1 0.6 26.9
2015-Mar-18 13:30N 11°09' W 153°52'0 0.0 26.9
2015-Mar-18 13:15N 11°09' W 153°52'2 1.3 26.8
2015-Mar-18 11:45N 11°09' W 153°50'   26.9

Dump ship's entire track history